Time;durP1;ratioP1;P1;durP2;ratioP2;P2;SDS_P1;SDS_P2;PMS_P1;PMS_P2;Temp;Humidity;BMP_temperature;BMP_pressure;BME280_temperature;BME280_humidity;BME280_pressure;Samples;Min_cycle;Max_cycle;Signal;HPM_P1;HPM_P2
2024/01/22 00:00:00;;;;;;;;;;;9.80;99.90;;;;;;7335426;19;108941;-68
2024/01/22 00:02:27;;;;;;;;;;;9.80;99.90;;;;;;7333684;19;108963;-68
2024/01/22 00:04:54;;;;;;;;;;;9.90;99.90;;;;;;7334842;19;110540;-67
2024/01/22 00:07:22;;;;;;;;;;;9.90;99.90;;;;;;7335419;19;109854;-67
2024/01/22 00:09:53;;;;;;;;;;;9.90;99.90;;;;;;7340958;19;109368;-70
2024/01/22 00:12:20;;;;;;;;;;;9.90;99.90;;;;;;7332514;19;110622;-67
2024/01/22 00:14:50;;;;;;;;;;;10.00;99.90;;;;;;7335293;19;109685;-70
2024/01/22 00:17:17;;;;;;;;;;;10.00;99.90;;;;;;7332285;19;111573;-68
2024/01/22 00:19:44;;;;;;;;;;;10.00;99.90;;;;;;7336771;19;108452;-68
2024/01/22 00:22:11;;;;;;;;;;;10.00;99.90;;;;;;7333506;19;111103;-69
2024/01/22 00:24:39;;;;;;;;;;;10.00;99.90;;;;;;7334719;19;109791;-69
2024/01/22 00:27:06;;;;;;;;;;;10.00;99.90;;;;;;7336705;19;109050;-68
2024/01/22 00:29:33;;;;;;;;;;;10.00;99.90;;;;;;7336043;19;108749;-73
2024/01/22 00:32:01;;;;;;;;;;;10.10;99.90;;;;;;7334456;19;109133;-67
2024/01/22 00:34:27;;;;;;;;;;;10.10;99.90;;;;;;7335091;19;108464;-68
2024/01/22 00:36:55;;;;;;;;;;;10.10;99.90;;;;;;7332338;19;109793;-67
2024/01/22 00:39:22;;;;;;;;;;;10.20;99.90;;;;;;7331514;19;108698;-67
2024/01/22 00:41:49;;;;;;;;;;;10.20;99.90;;;;;;7333373;19;109157;-66
2024/01/22 00:44:16;;;;;;;;;;;10.20;99.90;;;;;;7331725;19;109448;-68
2024/01/22 00:46:43;;;;;;;;;;;10.30;99.90;;;;;;7330951;19;108806;-68
2024/01/22 00:49:11;;;;;;;;;;;10.30;99.90;;;;;;7331072;19;112103;-67
2024/01/22 00:51:43;;;;;;;;;;;10.30;99.90;;;;;;7328631;19;109204;-67
2024/01/22 00:54:10;;;;;;;;;;;10.20;99.90;;;;;;7336468;19;109080;-71
2024/01/22 00:56:38;;;;;;;;;;;10.30;99.90;;;;;;7332522;19;109762;-67
2024/01/22 00:59:05;;;;;;;;;;;10.30;99.90;;;;;;7330373;19;108360;-69
2024/01/22 01:01:32;;;;;;;;;;;10.30;99.90;;;;;;7329548;19;109349;-68
2024/01/22 01:03:59;;;;;;;;;;;10.30;99.90;;;;;;7332823;19;111989;-67
2024/01/22 01:06:26;;;;;;;;;;;10.30;99.90;;;;;;7334439;19;112456;-67
2024/01/22 01:08:53;;;;;;;;;;;10.40;99.90;;;;;;7332635;19;109121;-67
2024/01/22 01:11:21;;;;;;;;;;;10.40;99.90;;;;;;7333660;19;110638;-67
2024/01/22 01:13:48;;;;;;;;;;;10.40;99.90;;;;;;7337329;19;108450;-68
2024/01/22 01:16:18;;;;;;;;;;;10.40;99.90;;;;;;7332453;19;110334;-68
2024/01/22 01:18:45;;;;;;;;;;;10.50;99.90;;;;;;7335156;19;108748;-67
2024/01/22 01:21:12;;;;;;;;;;;10.50;99.90;;;;;;7333242;19;109775;-68
2024/01/22 01:23:39;;;;;;;;;;;10.60;99.90;;;;;;7331930;19;109783;-67
2024/01/22 01:26:06;;;;;;;;;;;10.60;99.90;;;;;;7333131;19;108981;-66
2024/01/22 01:28:34;;;;;;;;;;;10.60;99.90;;;;;;7332174;19;108627;-67
2024/01/22 01:31:02;;;;;;;;;;;10.60;99.90;;;;;;7334096;19;109630;-67
2024/01/22 01:33:29;;;;;;;;;;;10.60;99.90;;;;;;7331495;19;108420;-67
2024/01/22 01:35:56;;;;;;;;;;;10.70;99.90;;;;;;7335223;19;109105;-68
2024/01/22 01:38:23;;;;;;;;;;;10.70;99.90;;;;;;7329385;19;108764;-67
2024/01/22 01:40:50;;;;;;;;;;;10.70;99.90;;;;;;7330407;19;109334;-68
2024/01/22 01:43:18;;;;;;;;;;;10.70;99.90;;;;;;7329281;19;109510;-67
2024/01/22 01:45:48;;;;;;;;;;;10.80;99.90;;;;;;7331347;19;108554;-67
2024/01/22 01:48:15;;;;;;;;;;;10.80;99.90;;;;;;7330565;19;108643;-67
2024/01/22 01:50:43;;;;;;;;;;;10.80;99.90;;;;;;7331826;19;109056;-66
2024/01/22 01:53:10;;;;;;;;;;;10.80;99.90;;;;;;7329010;19;110011;-67
2024/01/22 01:55:38;;;;;;;;;;;10.80;99.90;;;;;;7332126;19;108679;-67
2024/01/22 01:58:05;;;;;;;;;;;10.90;99.90;;;;;;7335984;19;109320;-67
2024/01/22 02:00:32;;;;;;;;;;;10.90;99.90;;;;;;7332105;19;110821;-67
2024/01/22 02:03:00;;;;;;;;;;;10.90;99.90;;;;;;7328838;19;109104;-67
2024/01/22 02:05:27;;;;;;;;;;;10.90;99.90;;;;;;7333413;19;108822;-67
2024/01/22 02:07:55;;;;;;;;;;;11.00;99.90;;;;;;7332578;19;108171;-67
2024/01/22 02:10:22;;;;;;;;;;;10.90;99.90;;;;;;7331435;19;109376;-67
2024/01/22 02:12:50;;;;;;;;;;;11.00;99.90;;;;;;7335099;19;108772;-67
2024/01/22 02:15:18;;;;;;;;;;;11.10;99.90;;;;;;7337456;19;109209;-67
2024/01/22 02:17:45;;;;;;;;;;;11.10;99.90;;;;;;7339417;19;110222;-66
2024/01/22 02:20:13;;;;;;;;;;;11.20;99.90;;;;;;7343169;19;108990;-66
2024/01/22 02:22:42;;;;;;;;;;;11.20;99.90;;;;;;7338242;19;111715;-67
2024/01/22 02:25:10;;;;;;;;;;;11.20;99.90;;;;;;7336948;19;109397;-66
2024/01/22 02:27:39;;;;;;;;;;;11.20;99.90;;;;;;7339282;19;110209;-67
2024/01/22 02:30:06;;;;;;;;;;;11.30;99.90;;;;;;7333509;19;110140;-67
2024/01/22 02:32:33;;;;;;;;;;;11.40;99.90;;;;;;7336766;19;109417;-67
2024/01/22 02:35:00;;;;;;;;;;;11.40;99.90;;;;;;7336501;19;109799;-67
2024/01/22 02:37:27;;;;;;;;;;;11.50;99.90;;;;;;7337742;19;109169;-67
2024/01/22 02:39:54;;;;;;;;;;;11.50;99.90;;;;;;7336361;19;109132;-67
2024/01/22 02:42:21;;;;;;;;;;;11.50;99.90;;;;;;7343227;19;109346;-67
2024/01/22 02:44:49;;;;;;;;;;;11.60;99.90;;;;;;7335970;19;108411;-68
2024/01/22 02:47:16;;;;;;;;;;;11.60;99.90;;;;;;7339109;19;108832;-67
2024/01/22 02:49:43;;;;;;;;;;;11.60;99.90;;;;;;7336615;19;109498;-67
2024/01/22 02:52:10;;;;;;;;;;;11.70;99.90;;;;;;7337193;19;108975;-67
2024/01/22 02:54:37;;;;;;;;;;;11.70;99.90;;;;;;7337551;19;108853;-66
2024/01/22 02:57:05;;;;;;;;;;;11.80;99.90;;;;;;7334347;19;110271;-67
2024/01/22 02:59:36;;;;;;;;;;;11.80;99.90;;;;;;7333498;19;109425;-67
2024/01/22 03:02:03;;;;;;;;;;;11.80;99.90;;;;;;7338145;19;110564;-67
2024/01/22 03:04:30;;;;;;;;;;;11.80;99.90;;;;;;7341472;19;109152;-67
2024/01/22 03:06:58;;;;;;;;;;;11.70;99.90;;;;;;7335434;19;109959;-67
2024/01/22 03:09:25;;;;;;;;;;;11.80;99.90;;;;;;7338650;19;109291;-67
2024/01/22 03:11:52;;;;;;;;;;;11.80;99.90;;;;;;7337938;19;109159;-67
2024/01/22 03:14:19;;;;;;;;;;;11.80;99.90;;;;;;7337307;19;108605;-67
2024/01/22 03:16:49;;;;;;;;;;;11.70;99.90;;;;;;7334019;19;110370;-67
2024/01/22 03:19:16;;;;;;;;;;;11.70;99.90;;;;;;7332228;19;109193;-70
2024/01/22 03:21:43;;;;;;;;;;;11.70;99.90;;;;;;7333583;19;111766;-67
2024/01/22 03:24:10;;;;;;;;;;;11.70;99.90;;;;;;7337518;19;110367;-68
2024/01/22 03:26:38;;;;;;;;;;;11.70;99.90;;;;;;7336744;19;109598;-67
2024/01/22 03:29:05;;;;;;;;;;;11.70;99.90;;;;;;7336870;19;110768;-68
2024/01/22 03:31:32;;;;;;;;;;;11.70;99.90;;;;;;7332245;19;108517;-68
2024/01/22 03:33:59;;;;;;;;;;;11.70;99.90;;;;;;7334540;19;110099;-68
2024/01/22 03:36:27;;;;;;;;;;;11.80;99.90;;;;;;7332421;19;110088;-70
2024/01/22 03:38:54;;;;;;;;;;;11.70;99.90;;;;;;7336255;19;108454;-69
2024/01/22 03:41:21;;;;;;;;;;;11.70;99.90;;;;;;7335643;19;108580;-67
2024/01/22 03:43:48;;;;;;;;;;;11.70;99.90;;;;;;7335451;19;110269;-68
2024/01/22 03:46:15;;;;;;;;;;;11.80;99.90;;;;;;7336176;19;109035;-67
2024/01/22 03:48:42;;;;;;;;;;;11.80;99.90;;;;;;7337326;19;109183;-68
2024/01/22 03:51:10;;;;;;;;;;;11.80;99.90;;;;;;7337145;19;108841;-67
2024/01/22 03:53:37;;;;;;;;;;;11.80;99.90;;;;;;7335320;19;109633;-67
2024/01/22 03:56:05;;;;;;;;;;;11.80;99.90;;;;;;7339667;19;109549;-75
2024/01/22 03:58:33;;;;;;;;;;;11.80;99.90;;;;;;7333132;19;110698;-70
2024/01/22 04:01:01;;;;;;;;;;;11.80;99.90;;;;;;7334950;19;109637;-74
2024/01/22 04:03:30;;;;;;;;;;;11.80;99.90;;;;;;7336111;19;109102;-72
2024/01/22 04:05:58;;;;;;;;;;;11.90;99.90;;;;;;7335642;19;109034;-67
2024/01/22 04:08:25;;;;;;;;;;;11.90;99.90;;;;;;7338153;19;109741;-67
2024/01/22 04:10:53;;;;;;;;;;;12.00;99.90;;;;;;7332000;19;109374;-67
2024/01/22 04:13:21;;;;;;;;;;;12.00;99.90;;;;;;7337084;19;108840;-67
2024/01/22 04:16:00;;;;;;;;;;;12.00;99.90;;;;;;7335955;19;109442;-68
2024/01/22 04:18:28;;;;;;;;;;;12.10;99.90;;;;;;7333485;19;109042;-68
2024/01/22 04:20:55;;;;;;;;;;;12.10;99.90;;;;;;7334047;19;109320;-68
2024/01/22 04:23:22;;;;;;;;;;;12.10;99.90;;;;;;7337724;19;110174;-68
2024/01/22 04:25:50;;;;;;;;;;;12.10;99.90;;;;;;7335129;19;108679;-70
2024/01/22 04:28:20;;;;;;;;;;;12.20;99.90;;;;;;7336350;19;109818;-69
2024/01/22 04:30:47;;;;;;;;;;;12.30;99.90;;;;;;7333074;19;109859;-68
2024/01/22 04:33:14;;;;;;;;;;;12.30;99.90;;;;;;7336850;19;109175;-67
2024/01/22 04:35:41;;;;;;;;;;;12.30;99.90;;;;;;7336128;19;109416;-68
2024/01/22 04:38:09;;;;;;;;;;;12.30;99.90;;;;;;7335075;19;108912;-67
2024/01/22 04:40:36;;;;;;;;;;;12.30;99.90;;;;;;7335591;19;109298;-68
2024/01/22 04:43:03;;;;;;;;;;;12.40;99.90;;;;;;7337095;19;109587;-67
2024/01/22 04:45:30;;;;;;;;;;;12.40;99.90;;;;;;7333926;19;110302;-67
2024/01/22 04:47:57;;;;;;;;;;;12.50;99.90;;;;;;7332434;19;108774;-68
2024/01/22 04:50:25;;;;;;;;;;;12.60;99.90;;;;;;7334574;19;109571;-67
2024/01/22 04:52:52;;;;;;;;;;;12.60;99.90;;;;;;7339730;19;108914;-67
2024/01/22 04:55:20;;;;;;;;;;;12.70;99.90;;;;;;7334101;19;110498;-67
2024/01/22 04:57:50;;;;;;;;;;;12.70;99.90;;;;;;7336357;19;108766;-67
2024/01/22 05:00:17;;;;;;;;;;;12.70;99.90;;;;;;7334632;19;109101;-67
2024/01/22 05:02:45;;;;;;;;;;;12.70;99.90;;;;;;7333450;19;108987;-67
2024/01/22 05:05:13;;;;;;;;;;;12.80;99.90;;;;;;7334030;19;110560;-67
2024/01/22 05:07:40;;;;;;;;;;;12.80;99.90;;;;;;7332783;19;110637;-67
2024/01/22 05:10:10;;;;;;;;;;;12.80;99.90;;;;;;7333327;19;109195;-67
2024/01/22 05:12:38;;;;;;;;;;;12.80;99.90;;;;;;7332390;19;108797;-67
2024/01/22 05:15:05;;;;;;;;;;;12.70;99.90;;;;;;7337961;19;108968;-66
2024/01/22 05:17:33;;;;;;;;;;;12.70;99.90;;;;;;7333056;19;109128;-66
2024/01/22 05:20:00;;;;;;;;;;;12.70;99.90;;;;;;7333350;19;108839;-67
2024/01/22 05:22:30;;;;;;;;;;;12.70;99.90;;;;;;7327761;19;109223;-66
2024/01/22 05:24:57;;;;;;;;;;;12.70;99.90;;;;;;7330989;19;109970;-66
2024/01/22 05:27:24;;;;;;;;;;;12.80;99.90;;;;;;7333306;19;108659;-67
2024/01/22 05:29:52;;;;;;;;;;;12.70;99.90;;;;;;7332712;19;112125;-67
2024/01/22 05:32:19;;;;;;;;;;;12.70;99.90;;;;;;7330268;19;109769;-67
2024/01/22 05:34:46;;;;;;;;;;;12.70;99.90;;;;;;7339196;19;109656;-66
2024/01/22 05:37:13;;;;;;;;;;;12.70;99.90;;;;;;7330913;19;111579;-68
2024/01/22 05:39:40;;;;;;;;;;;12.70;99.90;;;;;;7334137;19;108550;-68
2024/01/22 05:42:07;;;;;;;;;;;12.70;99.90;;;;;;7333744;19;109738;-68
2024/01/22 05:44:35;;;;;;;;;;;12.70;99.90;;;;;;7331511;19;108460;-68
2024/01/22 05:47:02;;;;;;;;;;;12.70;99.90;;;;;;7331745;19;109239;-68
2024/01/22 05:49:29;;;;;;;;;;;12.60;99.90;;;;;;7336018;19;109125;-67
2024/01/22 05:51:56;;;;;;;;;;;12.60;99.90;;;;;;7337230;19;113081;-67
2024/01/22 05:54:26;;;;;;;;;;;12.60;99.90;;;;;;7336124;19;109125;-68
2024/01/22 05:56:53;;;;;;;;;;;12.60;99.90;;;;;;7338812;19;110097;-66
2024/01/22 05:59:21;;;;;;;;;;;12.70;99.90;;;;;;7335781;19;109145;-65
2024/01/22 06:01:48;;;;;;;;;;;12.60;99.90;;;;;;7338520;19;109101;-67
2024/01/22 06:04:15;;;;;;;;;;;12.60;99.90;;;;;;7335756;19;108828;-67
2024/01/22 06:06:42;;;;;;;;;;;12.60;99.90;;;;;;7335019;19;109325;-67
2024/01/22 06:09:10;;;;;;;;;;;12.60;99.90;;;;;;7340016;19;109781;-67
2024/01/22 06:11:37;;;;;;;;;;;12.50;99.90;;;;;;7337213;19;110362;-67
2024/01/22 06:14:04;;;;;;;;;;;12.50;99.90;;;;;;7340180;19;109764;-66
2024/01/22 06:16:31;;;;;;;;;;;12.50;99.90;;;;;;7336808;19;109891;-68
2024/01/22 06:18:58;;;;;;;;;;;12.50;99.90;;;;;;7341575;19;108947;-68
2024/01/22 06:21:26;;;;;;;;;;;12.50;99.90;;;;;;7336351;19;110197;-69
2024/01/22 06:23:53;;;;;;;;;;;12.50;99.90;;;;;;7339935;19;109839;-67
2024/01/22 06:26:23;;;;;;;;;;;12.50;99.90;;;;;;7336932;19;108992;-67
2024/01/22 06:28:52;;;;;;;;;;;12.50;99.90;;;;;;7340459;19;110277;-67
2024/01/22 06:31:20;;;;;;;;;;;12.50;99.90;;;;;;7340785;19;110205;-67
2024/01/22 06:33:47;;;;;;;;;;;12.50;99.90;;;;;;7339264;19;108798;-68
2024/01/22 06:36:15;;;;;;;;;;;12.50;99.90;;;;;;7335057;19;111356;-67
2024/01/22 06:38:43;;;;;;;;;;;12.50;99.90;;;;;;7339735;19;110446;-67
2024/01/22 06:41:11;;;;;;;;;;;12.60;99.90;;;;;;7343449;19;108504;-68
2024/01/22 06:43:39;;;;;;;;;;;12.60;99.90;;;;;;7338559;19;109273;-67
2024/01/22 06:46:06;;;;;;;;;;;12.50;99.90;;;;;;7338231;19;108947;-67
2024/01/22 06:48:33;;;;;;;;;;;12.50;99.90;;;;;;7335231;19;112612;-67
2024/01/22 06:51:01;;;;;;;;;;;12.50;99.90;;;;;;7336963;19;109199;-68
2024/01/22 06:53:28;;;;;;;;;;;12.60;99.90;;;;;;7339489;19;111107;-67
2024/01/22 06:55:55;;;;;;;;;;;12.50;99.90;;;;;;7337855;19;110400;-68
2024/01/22 06:58:22;;;;;;;;;;;12.60;99.90;;;;;;7336569;19;108554;-67
2024/01/22 07:00:51;;;;;;;;;;;12.50;99.90;;;;;;7342686;19;111255;-67
2024/01/22 07:03:20;;;;;;;;;;;12.60;99.90;;;;;;7342901;19;110195;-68
2024/01/22 07:05:48;;;;;;;;;;;12.60;99.90;;;;;;7339002;19;108477;-68
2024/01/22 07:08:16;;;;;;;;;;;12.50;99.90;;;;;;7336462;19;109800;-68
2024/01/22 07:10:44;;;;;;;;;;;12.60;99.90;;;;;;7338951;19;109007;-67
2024/01/22 07:13:11;;;;;;;;;;;12.50;99.90;;;;;;7337968;19;108960;-67
2024/01/22 07:15:39;;;;;;;;;;;12.50;99.90;;;;;;7339111;19;109127;-68
2024/01/22 07:18:07;;;;;;;;;;;12.50;99.90;;;;;;7338808;19;108623;-67
2024/01/22 07:20:34;;;;;;;;;;;12.60;99.90;;;;;;7340761;19;109323;-67
2024/01/22 07:23:03;;;;;;;;;;;12.50;99.90;;;;;;7337795;19;109787;-68
2024/01/22 07:25:34;;;;;;;;;;;12.50;99.90;;;;;;7344260;19;108671;-70
2024/01/22 07:28:04;;;;;;;;;;;12.50;99.90;;;;;;7334686;19;109444;-70
2024/01/22 07:30:32;;;;;;;;;;;12.50;99.90;;;;;;7340164;19;108354;-69
2024/01/22 07:32:59;;;;;;;;;;;12.50;99.90;;;;;;7335533;19;108777;-69
2024/01/22 07:35:27;;;;;;;;;;;12.60;99.90;;;;;;7335412;19;111863;-70
2024/01/22 07:37:58;;;;;;;;;;;12.60;99.90;;;;;;7337914;19;108573;-70
2024/01/22 07:40:25;;;;;;;;;;;12.60;99.90;;;;;;7338763;19;109209;-70
2024/01/22 07:42:52;;;;;;;;;;;12.60;99.90;;;;;;7334879;19;109144;-70
2024/01/22 07:45:19;;;;;;;;;;;12.60;99.90;;;;;;7344070;19;108863;-71
2024/01/22 07:47:46;;;;;;;;;;;12.60;99.90;;;;;;7336207;19;113227;-71
2024/01/22 07:50:14;;;;;;;;;;;12.70;99.90;;;;;;7336974;19;110336;-71
2024/01/22 07:52:42;;;;;;;;;;;12.70;99.90;;;;;;7338242;19;109228;-68
2024/01/22 07:55:16;;;;;;;;;;;12.60;99.90;;;;;;7336980;19;110229;-71
2024/01/22 07:57:43;;;;;;;;;;;12.60;99.90;;;;;;7337406;19;108703;-70
2024/01/22 08:00:11;;;;;;;;;;;12.60;99.90;;;;;;7336602;19;109766;-70
2024/01/22 08:02:39;;;;;;;;;;;12.60;99.90;;;;;;7338096;19;109634;-70
2024/01/22 08:05:07;;;;;;;;;;;12.60;99.90;;;;;;7337634;19;108683;-70
2024/01/22 08:07:34;;;;;;;;;;;12.60;99.90;;;;;;7340737;19;108530;-70
2024/01/22 08:10:01;;;;;;;;;;;12.60;99.90;;;;;;7336884;19;108878;-70
2024/01/22 08:12:28;;;;;;;;;;;12.60;99.90;;;;;;7338484;19;108570;-70
2024/01/22 08:14:55;;;;;;;;;;;12.60;99.90;;;;;;7334713;19;109829;-67
2024/01/22 08:17:23;;;;;;;;;;;12.60;99.90;;;;;;7338897;19;108582;-70
2024/01/22 08:19:58;;;;;;;;;;;12.60;99.90;;;;;;7336647;19;108597;-70
2024/01/22 08:22:25;;;;;;;;;;;12.60;99.90;;;;;;7333919;19;109735;-70
2024/01/22 08:25:03;;;;;;;;;;;12.60;99.90;;;;;;7334649;19;111447;-70
2024/01/22 08:27:33;;;;;;;;;;;12.60;99.90;;;;;;7332481;19;109377;-70
2024/01/22 08:30:00;;;;;;;;;;;12.60;99.90;;;;;;7337045;19;109367;-70
2024/01/22 08:32:27;;;;;;;;;;;12.70;99.90;;;;;;7332685;19;109067;-71
2024/01/22 08:34:54;;;;;;;;;;;12.60;99.90;;;;;;7334925;19;109087;-70
2024/01/22 08:37:22;;;;;;;;;;;12.60;99.90;;;;;;7333476;19;109586;-71
2024/01/22 08:39:49;;;;;;;;;;;12.60;99.90;;;;;;7334413;19;108628;-71
2024/01/22 08:42:16;;;;;;;;;;;12.70;99.90;;;;;;7333281;19;110617;-71
2024/01/22 08:44:43;;;;;;;;;;;12.60;99.90;;;;;;7335467;19;108719;-70
2024/01/22 08:47:11;;;;;;;;;;;12.60;99.90;;;;;;7339633;19;109286;-70
2024/01/22 08:49:38;;;;;;;;;;;12.70;99.90;;;;;;7334121;19;110164;-71
2024/01/22 08:52:05;;;;;;;;;;;12.60;99.90;;;;;;7341027;19;109375;-72
2024/01/22 08:54:33;;;;;;;;;;;12.70;99.90;;;;;;7335045;19;109769;-71
2024/01/22 08:57:03;;;;;;;;;;;12.70;99.90;;;;;;7335066;19;108853;-70
2024/01/22 08:59:31;;;;;;;;;;;12.70;99.90;;;;;;7335298;19;109179;-75
2024/01/22 09:01:58;;;;;;;;;;;12.70;99.90;;;;;;7338689;19;109707;-71
2024/01/22 09:04:25;;;;;;;;;;;12.70;99.90;;;;;;7332678;19;110458;-71
2024/01/22 09:06:52;;;;;;;;;;;12.70;99.90;;;;;;7339057;19;108795;-71
2024/01/22 09:09:19;;;;;;;;;;;12.70;99.90;;;;;;7333890;19;109595;-71
2024/01/22 09:11:46;;;;;;;;;;;12.70;99.90;;;;;;7336877;19;108715;-75
2024/01/22 09:14:13;;;;;;;;;;;12.70;99.90;;;;;;7337889;19;109949;-72
2024/01/22 09:16:41;;;;;;;;;;;12.70;99.90;;;;;;7336122;19;108637;-72
2024/01/22 09:19:08;;;;;;;;;;;12.60;99.90;;;;;;7336259;19;109120;-71
2024/01/22 09:21:35;;;;;;;;;;;12.70;99.90;;;;;;7333888;19;110343;-72
2024/01/22 09:24:03;;;;;;;;;;;12.70;99.90;;;;;;7342902;19;108822;-74
2024/01/22 09:26:30;;;;;;;;;;;12.70;99.90;;;;;;7340398;19;109468;-73
2024/01/22 09:28:57;;;;;;;;;;;12.70;99.90;;;;;;7339700;19;109173;-71
2024/01/22 09:31:24;;;;;;;;;;;12.70;99.90;;;;;;7340117;19;110403;-74
2024/01/22 09:33:53;;;;;;;;;;;12.70;99.90;;;;;;7344730;19;108997;-76
2024/01/22 09:36:21;;;;;;;;;;;12.70;99.90;;;;;;7343901;19;108913;-80
2024/01/22 09:38:48;;;;;;;;;;;12.70;99.90;;;;;;7342992;19;109655;-80
2024/01/22 09:41:16;;;;;;;;;;;12.70;99.90;;;;;;7342143;19;110101;-80
2024/01/22 09:43:44;;;;;;;;;;;12.70;99.90;;;;;;7343085;19;109932;-70
2024/01/22 09:46:12;;;;;;;;;;;12.70;99.90;;;;;;7340891;19;114893;-70
2024/01/22 09:48:39;;;;;;;;;;;12.70;99.90;;;;;;7341623;19;112615;-71
2024/01/22 09:51:07;;;;;;;;;;;12.70;99.90;;;;;;7340636;19;108610;-74
2024/01/22 09:53:35;;;;;;;;;;;12.70;99.90;;;;;;7340783;19;109283;-70
2024/01/22 09:56:04;;;;;;;;;;;12.70;99.90;;;;;;7345570;19;110224;-70
2024/01/22 09:58:37;;;;;;;;;;;12.70;99.90;;;;;;7341426;19;109415;-70
2024/01/22 10:01:07;;;;;;;;;;;12.70;99.90;;;;;;7341057;19;110609;-69
2024/01/22 10:03:35;;;;;;;;;;;12.60;99.90;;;;;;7341395;19;108611;-70
2024/01/22 10:06:02;;;;;;;;;;;12.60;99.90;;;;;;7339611;19;108912;-70
2024/01/22 10:08:30;;;;;;;;;;;12.60;99.90;;;;;;7340412;19;109110;-70
2024/01/22 10:10:57;;;;;;;;;;;12.60;99.90;;;;;;7339630;19;109264;-70
2024/01/22 10:13:24;;;;;;;;;;;12.60;99.90;;;;;;7340914;19;109717;-70
2024/01/22 10:15:51;;;;;;;;;;;12.50;99.90;;;;;;7335690;19;109721;-70
2024/01/22 10:18:21;;;;;;;;;;;12.50;99.90;;;;;;7344482;19;108425;-70
2024/01/22 10:20:50;;;;;;;;;;;12.50;99.90;;;;;;7338572;19;110285;-69
2024/01/22 10:23:20;;;;;;;;;;;12.50;99.90;;;;;;7338578;19;108684;-70
2024/01/22 10:25:47;;;;;;;;;;;12.60;99.90;;;;;;7337148;19;109086;-69
2024/01/22 10:28:19;;;;;;;;;;;12.50;99.90;;;;;;7337603;19;109626;-71
2024/01/22 10:31:00;;;;;;;;;;;12.50;99.90;;;;;;7339243;19;114576;-69
2024/01/22 10:33:27;;;;;;;;;;;12.50;99.90;;;;;;7338532;19;109474;-70
2024/01/22 10:35:57;;;;;;;;;;;12.60;99.90;;;;;;7339230;19;109071;-70
2024/01/22 10:38:25;;;;;;;;;;;12.60;99.90;;;;;;7339869;19;108952;-69
2024/01/22 10:40:52;;;;;;;;;;;12.60;99.90;;;;;;7342612;19;110331;-69
2024/01/22 10:43:19;;;;;;;;;;;12.50;99.90;;;;;;7340334;19;108773;-70
2024/01/22 10:45:48;;;;;;;;;;;12.60;99.90;;;;;;7338237;19;108606;-70
2024/01/22 10:48:17;;;;;;;;;;;12.60;99.90;;;;;;7337107;19;109853;-70
2024/01/22 10:51:01;;;;;;;;;;;12.50;99.90;;;;;;7339608;19;108421;-70
2024/01/22 10:53:28;;;;;;;;;;;12.60;99.90;;;;;;7338287;19;109213;-70
2024/01/22 10:55:58;;;;;;;;;;;12.60;99.90;;;;;;7340922;19;109936;-70
2024/01/22 10:58:29;;;;;;;;;;;12.60;99.90;;;;;;7338320;19;110391;-70
2024/01/22 11:00:57;;;;;;;;;;;12.60;99.90;;;;;;7339311;19;111040;-71
2024/01/22 11:03:26;;;;;;;;;;;12.60;99.90;;;;;;7341172;19;110493;-70
2024/01/22 11:05:57;;;;;;;;;;;12.50;99.90;;;;;;7338522;19;108647;-70
2024/01/22 11:08:29;;;;;;;;;;;12.50;99.90;;;;;;7334956;19;109102;-70
2024/01/22 11:10:56;;;;;;;;;;;12.50;99.90;;;;;;7336104;19;108870;-69
2024/01/22 11:13:24;;;;;;;;;;;12.50;99.90;;;;;;7337479;19;108750;-70
2024/01/22 11:15:51;;;;;;;;;;;12.40;99.90;;;;;;7335524;19;110150;-70
2024/01/22 11:18:18;;;;;;;;;;;12.50;99.90;;;;;;7337342;19;110177;-70
2024/01/22 11:20:46;;;;;;;;;;;12.40;99.90;;;;;;7339523;19;109005;-70
2024/01/22 11:23:16;;;;;;;;;;;12.40;99.90;;;;;;7333921;19;110177;-69
2024/01/22 11:25:46;;;;;;;;;;;12.40;99.90;;;;;;7344654;19;108338;-69
2024/01/22 11:28:15;;;;;;;;;;;12.40;99.90;;;;;;7331465;19;109377;-70
2024/01/22 11:30:44;;;;;;;;;;;12.40;99.90;;;;;;7338412;19;109507;-71
2024/01/22 11:33:25;;;;;;;;;;;12.40;99.90;;;;;;7336614;19;108463;-70
2024/01/22 11:35:53;;;;;;;;;;;12.50;99.90;;;;;;7336528;19;110025;-70
2024/01/22 11:38:40;;;;;;;;;;;12.50;99.90;;;;;;7338453;19;108822;-70
2024/01/22 11:41:08;;;;;;;;;;;12.50;99.90;;;;;;7338397;19;109215;-70
2024/01/22 11:43:35;;;;;;;;;;;12.50;99.90;;;;;;7336505;19;109615;-70
2024/01/22 11:46:14;;;;;;;;;;;12.40;99.90;;;;;;7337775;19;110604;-70
2024/01/22 11:48:41;;;;;;;;;;;12.40;99.90;;;;;;7335544;19;109199;-69
2024/01/22 11:51:09;;;;;;;;;;;12.40;99.90;;;;;;7331406;19;110262;-70
2024/01/22 11:53:56;;;;;;;;;;;12.40;99.90;;;;;;7336654;19;109592;-70
2024/01/22 11:56:24;;;;;;;;;;;12.50;99.90;;;;;;7336346;19;110454;-70
2024/01/22 11:59:01;;;;;;;;;;;12.50;99.90;;;;;;7334533;19;109405;-70
2024/01/22 12:01:32;;;;;;;;;;;12.60;99.90;;;;;;7335550;19;108925;-69
2024/01/22 12:04:09;;;;;;;;;;;12.60;99.90;;;;;;7334621;19;109095;-70
2024/01/22 12:06:53;;;;;;;;;;;12.50;99.90;;;;;;7335280;19;108964;-70
2024/01/22 12:09:20;;;;;;;;;;;12.50;99.90;;;;;;7340322;19;110065;-70
2024/01/22 12:11:51;;;;;;;;;;;12.50;99.90;;;;;;7338033;19;109172;-70
2024/01/22 12:14:18;;;;;;;;;;;12.50;99.90;;;;;;7333420;19;108893;-70
2024/01/22 12:16:45;;;;;;;;;;;12.50;99.90;;;;;;7333643;19;109343;-70
2024/01/22 12:19:14;;;;;;;;;;;12.60;99.90;;;;;;7336657;19;108911;-70
2024/01/22 12:21:42;;;;;;;;;;;12.60;99.90;;;;;;7337156;19;109006;-70
2024/01/22 12:24:14;;;;;;;;;;;12.60;99.90;;;;;;7334897;19;110204;-70
2024/01/22 12:26:41;;;;;;;;;;;12.70;99.90;;;;;;7336598;19;114416;-70
2024/01/22 12:29:38;;;;;;;;;;;12.70;99.90;;;;;;7337356;19;109352;-70
2024/01/22 12:32:05;;;;;;;;;;;12.70;99.90;;;;;;7339672;19;109543;-70
2024/01/22 12:34:33;;;;;;;;;;;12.80;99.90;;;;;;7335656;19;110279;-70
2024/01/22 12:37:18;;;;;;;;;;;12.80;99.90;;;;;;7334188;19;109312;-70
2024/01/22 12:39:45;;;;;;;;;;;12.90;99.90;;;;;;7337605;19;108533;-70
2024/01/22 12:42:21;;;;;;;;;;;12.90;99.90;;;;;;7334920;19;109081;-70
2024/01/22 12:45:01;;;;;;;;;;;13.00;99.90;;;;;;7334847;19;110657;-70
2024/01/22 12:47:29;;;;;;;;;;;13.00;99.90;;;;;;7334584;19;109268;-70
2024/01/22 12:50:04;;;;;;;;;;;13.10;99.90;;;;;;7334914;19;109142;-70
2024/01/22 12:52:32;;;;;;;;;;;13.10;99.90;;;;;;7333491;19;115598;-70
2024/01/22 12:55:02;;;;;;;;;;;13.00;99.90;;;;;;7340445;19;108269;-70
2024/01/22 12:57:29;;;;;;;;;;;12.90;99.90;;;;;;7326347;19;110896;-70
2024/01/22 12:59:57;;;;;;;;;;;12.90;99.90;;;;;;7332141;19;108842;-70
2024/01/22 13:02:24;;;;;;;;;;;12.90;99.90;;;;;;7333180;19;108255;-70
2024/01/22 13:04:51;;;;;;;;;;;12.80;99.90;;;;;;7332423;19;112614;-70
2024/01/22 13:07:19;;;;;;;;;;;12.80;99.90;;;;;;7333439;19;108545;-70
2024/01/22 13:09:46;;;;;;;;;;;12.80;99.90;;;;;;7333304;19;109615;-70
2024/01/22 13:12:13;;;;;;;;;;;12.70;99.90;;;;;;7332409;19;110137;-70
2024/01/22 13:14:41;;;;;;;;;;;12.70;99.90;;;;;;7332948;19;109645;-69
2024/01/22 13:17:11;;;;;;;;;;;12.70;99.90;;;;;;7338261;19;109214;-69
2024/01/22 13:19:38;;;;;;;;;;;12.60;99.90;;;;;;7334933;19;108387;-69
2024/01/22 13:22:09;;;;;;;;;;;12.60;99.90;;;;;;7334008;19;109014;-70
2024/01/22 13:24:36;;;;;;;;;;;12.50;99.90;;;;;;7334668;19;109631;-69
2024/01/22 13:27:03;;;;;;;;;;;12.40;99.90;;;;;;7333380;19;108953;-70
2024/01/22 13:29:31;;;;;;;;;;;12.40;99.90;;;;;;7333523;19;109017;-70
2024/01/22 13:31:58;;;;;;;;;;;12.40;99.90;;;;;;7334121;19;110630;-70
2024/01/22 13:34:26;;;;;;;;;;;12.40;99.90;;;;;;7336155;19;108417;-70
2024/01/22 13:36:54;;;;;;;;;;;12.30;99.90;;;;;;7334228;19;108763;-70
2024/01/22 13:39:21;;;;;;;;;;;12.30;99.90;;;;;;7338432;19;109682;-70
2024/01/22 13:41:48;;;;;;;;;;;12.30;99.90;;;;;;7332941;19;110841;-69
2024/01/22 13:44:16;;;;;;;;;;;12.30;99.90;;;;;;7333572;19;109219;-70
2024/01/22 13:46:43;;;;;;;;;;;12.40;99.90;;;;;;7333019;19;108411;-69
2024/01/22 13:49:11;;;;;;;;;;;12.40;99.90;;;;;;7333291;19;108707;-69
2024/01/22 13:51:38;;;;;;;;;;;12.40;99.90;;;;;;7332909;19;109236;-70
2024/01/22 13:54:06;;;;;;;;;;;12.40;99.90;;;;;;7332589;19;110783;-69
2024/01/22 13:56:35;;;;;;;;;;;12.30;99.90;;;;;;7333329;19;108630;-69
2024/01/22 13:59:03;;;;;;;;;;;12.30;99.90;;;;;;7338615;19;110492;-78
2024/01/22 14:01:30;;;;;;;;;;;12.30;99.90;;;;;;7333683;19;108364;-73
2024/01/22 14:03:58;;;;;;;;;;;12.30;99.90;;;;;;7331066;19;110462;-71
2024/01/22 14:06:25;;;;;;;;;;;12.20;99.90;;;;;;7333747;19;108567;-71
2024/01/22 14:08:52;;;;;;;;;;;12.20;99.90;;;;;;7340277;19;109062;-74